Time;durP1;ratioP1;P1;durP2;ratioP2;P2;SDS_P1;SDS_P2;PMS_P1;PMS_P2;Temp;Humidity;BMP_temperature;BMP_pressure;BME280_temperature;BME280_humidity;BME280_pressure;Samples;Min_cycle;Max_cycle;Signal;HPM_P1;HPM_P2
2023/01/31 00:01:51;;;;;;;153.67;59.97;;;4.50;99.90;;;;;;5047862;28;20222;-52
2023/01/31 00:04:20;;;;;;;162.10;64.20;;;4.50;99.90;;;;;;5048187;28;20229;-52
2023/01/31 00:06:50;;;;;;;850.93;204.83;;;4.50;99.90;;;;;;5049159;28;20240;-52
2023/01/31 00:09:19;;;;;;;243.57;104.17;;;4.50;99.90;;;;;;5048611;28;20240;-52
2023/01/31 00:11:47;;;;;;;506.30;169.87;;;4.50;99.90;;;;;;5041959;28;20214;-52
2023/01/31 00:14:18;;;;;;;180.97;84.30;;;4.50;99.90;;;;;;5045297;28;20238;-50
2023/01/31 00:16:47;;;;;;;941.27;262.77;;;4.50;99.90;;;;;;5044303;28;21101;-53
2023/01/31 00:19:15;;;;;;;239.10;137.33;;;4.50;99.90;;;;;;5048672;28;20236;-53
2023/01/31 00:21:44;;;;;;;607.30;151.93;;;4.50;99.90;;;;;;5048895;28;20244;-52
2023/01/31 00:24:13;;;;;;;135.50;98.80;;;4.50;99.90;;;;;;5049047;28;20226;-53
2023/01/31 00:26:41;;;;;;;76.53;41.63;;;4.50;99.90;;;;;;5048929;28;20297;-52
2023/01/31 00:29:10;;;;;;;80.93;64.37;;;4.40;99.90;;;;;;5036683;28;20676;-52
2023/01/31 00:31:38;;;;;;;558.47;147.33;;;4.40;99.90;;;;;;5048567;28;20290;-53
2023/01/31 00:34:07;;;;;;;75.60;49.37;;;4.50;99.90;;;;;;5050135;28;20301;-52
2023/01/31 00:36:35;;;;;;;43.90;28.07;;;4.50;99.90;;;;;;5072541;28;20747;-52
2023/01/31 00:39:07;;;;;;;1999.90;592.30;;;4.40;99.90;;;;;;5072536;28;20701;-51
2023/01/31 00:41:37;;;;;;;68.33;33.43;;;4.40;99.90;;;;;;5072305;28;20213;-52
2023/01/31 00:44:06;;;;;;;415.90;98.87;;;4.40;99.90;;;;;;5072114;28;20233;-51
2023/01/31 00:46:34;;;;;;;227.57;86.67;;;4.50;99.90;;;;;;5072395;28;20296;-52
2023/01/31 00:49:03;;;;;;;1532.93;417.47;;;4.40;99.90;;;;;;5072277;28;20296;-53
2023/01/31 00:51:31;;;;;;;88.00;42.80;;;4.40;99.90;;;;;;5071983;28;20642;-52
2023/01/31 00:53:59;;;;;;;331.47;135.57;;;4.40;99.90;;;;;;5048414;28;20237;-52
2023/01/31 00:56:29;;;;;;;1245.40;255.00;;;4.40;99.90;;;;;;5054265;28;20213;-52
2023/01/31 00:58:57;;;;;;;1127.60;185.97;;;4.30;99.90;;;;;;5057655;28;20237;-51
2023/01/31 01:01:26;;;;;;;314.43;108.33;;;4.30;99.90;;;;;;5070952;28;20292;-52
2023/01/31 01:03:56;;;;;;;47.17;32.70;;;4.30;99.90;;;;;;5071403;28;20221;-51
2023/01/31 01:06:25;;;;;;;194.47;99.73;;;4.40;99.90;;;;;;5062705;28;20218;-53
2023/01/31 01:08:53;;;;;;;453.10;110.53;;;4.40;99.90;;;;;;5071641;28;20296;-51
2023/01/31 01:11:27;;;;;;;62.17;34.50;;;4.30;99.90;;;;;;5067759;28;20236;-51
2023/01/31 01:13:57;;;;;;;133.87;71.00;;;4.30;99.90;;;;;;5071640;28;20313;-52
2023/01/31 01:16:28;;;;;;;296.80;128.00;;;4.30;99.90;;;;;;5071886;28;20210;-52
2023/01/31 01:18:56;;;;;;;983.87;209.93;;;4.30;99.90;;;;;;5065139;28;20209;-52
2023/01/31 01:21:25;;;;;;;252.63;84.30;;;4.30;99.90;;;;;;5071297;28;20301;-52
2023/01/31 01:23:55;;;;;;;324.97;115.90;;;4.30;99.90;;;;;;5070501;28;20270;-52
2023/01/31 01:26:26;;;;;;;130.07;64.03;;;4.30;99.90;;;;;;5068628;28;20205;-51
2023/01/31 01:28:57;;;;;;;396.97;115.30;;;4.30;99.90;;;;;;5070010;28;20236;-51
2023/01/31 01:31:28;;;;;;;1762.63;419.60;;;4.30;99.90;;;;;;5071331;28;20217;-52
2023/01/31 01:33:59;;;;;;;272.93;122.90;;;4.40;99.90;;;;;;5056812;28;20196;-51
2023/01/31 01:36:27;;;;;;;583.87;159.50;;;4.40;99.90;;;;;;5071619;28;20292;-52
2023/01/31 01:38:56;;;;;;;732.77;205.57;;;4.40;99.90;;;;;;5070662;28;20265;-51
2023/01/31 01:41:24;;;;;;;501.30;172.17;;;4.30;99.90;;;;;;5071066;28;20295;-51
2023/01/31 01:43:54;;;;;;;59.77;40.23;;;4.30;99.90;;;;;;5070811;28;20702;-51
2023/01/31 01:46:28;;;;;;;776.90;182.13;;;4.30;99.90;;;;;;5069952;28;20227;-52
2023/01/31 01:49:01;;;;;;;79.80;49.60;;;4.30;99.90;;;;;;5071465;28;20221;-52
2023/01/31 01:51:32;;;;;;;134.70;68.83;;;4.30;99.90;;;;;;5065358;28;20240;-52
2023/01/31 01:54:05;;;;;;;111.53;91.57;;;4.30;99.90;;;;;;5052598;28;20235;-51
2023/01/31 01:56:38;;;;;;;250.47;105.30;;;4.30;99.90;;;;;;5070733;28;20201;-52
2023/01/31 01:59:09;;;;;;;73.90;50.30;;;4.30;99.90;;;;;;5070952;28;20244;-51
2023/01/31 02:01:39;;;;;;;74.23;39.47;;;4.30;99.90;;;;;;5043805;28;20337;-50
2023/01/31 02:04:13;;;;;;;770.57;182.23;;;4.30;99.90;;;;;;5065753;28;20923;-52
2023/01/31 02:06:42;;;;;;;339.50;95.00;;;4.30;99.90;;;;;;5067840;28;20295;-52
2023/01/31 02:09:16;;;;;;;323.73;93.30;;;4.20;99.90;;;;;;5070485;28;20222;-52
2023/01/31 02:11:44;;;;;;;55.23;31.40;;;4.10;99.90;;;;;;5058055;28;20214;-52
2023/01/31 02:14:12;;;;;;;87.37;52.40;;;4.20;99.90;;;;;;5068946;28;20208;-53
2023/01/31 02:16:41;;;;;;;615.80;142.60;;;4.20;99.90;;;;;;5066331;28;20248;-52
2023/01/31 02:19:18;;;;;;;1742.00;347.87;;;4.20;99.90;;;;;;5060849;28;20205;-51
2023/01/31 02:22:14;;;;;;;89.77;58.73;;;4.30;99.90;;;;;;5066505;28;20205;-52
2023/01/31 02:25:15;;;;;;;56.97;38.03;;;4.30;99.90;;;;;;5064117;28;20780;-52
2023/01/31 02:28:16;;;;;;;287.40;122.43;;;4.30;99.90;;;;;;5051334;28;20777;-51
2023/01/31 02:31:16;;;;;;;460.37;123.80;;;4.30;99.90;;;;;;5045195;28;20292;-51
2023/01/31 02:33:51;;;;;;;96.37;83.00;;;4.30;99.90;;;;;;5069682;28;20239;-51
2023/01/31 02:36:29;;;;;;;38.10;19.80;;;4.30;99.90;;;;;;5070359;28;20315;-52
2023/01/31 02:39:07;;;;;;;72.87;53.67;;;4.20;99.90;;;;;;5043321;28;20825;-50
2023/01/31 02:41:42;;;;;;;105.53;69.47;;;4.30;99.90;;;;;;5062104;28;20658;-53
2023/01/31 02:47:14;;;;;;;100.47;79.70;;;4.30;99.90;;;;;;5069919;28;20298;-52
2023/01/31 02:49:50;;;;;;;63.30;48.33;;;4.30;99.90;;;;;;5067871;28;20215;-51
2023/01/31 02:52:25;;;;;;;49.40;44.03;;;4.30;99.90;;;;;;5062549;28;20260;-52
2023/01/31 02:57:49;;;;;;;113.70;67.23;;;4.20;99.90;;;;;;5068607;28;20207;-51
2023/01/31 03:00:18;;;;;;;376.47;114.40;;;4.20;99.90;;;;;;5069277;28;20210;-51
2023/01/31 03:02:46;;;;;;;80.53;53.00;;;4.10;99.90;;;;;;5063286;28;20229;-51
2023/01/31 03:05:17;;;;;;;85.13;57.83;;;4.20;99.90;;;;;;5060509;28;20225;-51
2023/01/31 03:07:50;;;;;;;77.13;51.13;;;4.20;99.90;;;;;;5069552;28;20205;-51
2023/01/31 03:10:35;;;;;;;86.70;38.67;;;4.20;99.90;;;;;;5069266;28;20299;-53
2023/01/31 03:13:22;;;;;;;86.87;40.63;;;4.10;99.90;;;;;;5064781;28;20312;-51
2023/01/31 03:18:59;;;;;;;87.73;64.47;;;4.10;99.90;;;;;;5047831;28;20207;-53
2023/01/31 03:21:34;;;;;;;58.70;38.73;;;4.10;99.90;;;;;;5063884;28;20814;-52
2023/01/31 03:24:04;;;;;;;62.90;43.27;;;4.20;99.90;;;;;;5051923;28;20252;-52
2023/01/31 03:26:33;;;;;;;55.37;29.87;;;4.20;99.90;;;;;;5063855;28;20226;-52
2023/01/31 03:29:03;;;;;;;71.10;50.53;;;4.20;99.90;;;;;;5069167;28;20666;-51
2023/01/31 03:31:37;;;;;;;52.93;39.33;;;4.20;99.90;;;;;;5066293;28;20299;-52
2023/01/31 03:34:08;;;;;;;72.97;65.27;;;4.20;99.90;;;;;;5047697;28;20235;-52
2023/01/31 03:36:41;;;;;;;60.97;54.43;;;4.20;99.90;;;;;;5069389;28;20215;-51
2023/01/31 03:39:16;;;;;;;73.77;46.87;;;4.20;99.90;;;;;;5068864;28;20742;-52
2023/01/31 03:41:55;;;;;;;446.20;220.07;;;4.20;99.90;;;;;;5052487;28;20254;-53
2023/01/31 03:44:31;;;;;;;126.03;113.53;;;4.10;99.90;;;;;;5069148;28;20303;-51
2023/01/31 03:47:04;;;;;;;133.00;120.33;;;4.00;99.90;;;;;;5069030;28;20862;-52
2023/01/31 03:49:34;;;;;;;527.50;178.23;;;3.90;99.90;;;;;;5067121;28;20295;-51
2023/01/31 03:52:07;;;;;;;93.03;64.40;;;3.80;99.90;;;;;;5068554;28;20227;-51
2023/01/31 03:54:41;;;;;;;47.30;33.87;;;3.70;99.90;;;;;;5069039;28;20348;-51
2023/01/31 03:57:17;;;;;;;104.50;94.93;;;3.70;99.90;;;;;;5069028;28;20235;-51
2023/01/31 03:59:52;;;;;;;64.07;51.37;;;3.60;99.90;;;;;;5068689;28;20921;-52
2023/01/31 04:02:23;;;;;;;30.33;24.30;;;3.60;99.90;;;;;;5046100;28;20309;-52
2023/01/31 04:04:55;;;;;;;70.93;63.40;;;3.50;99.90;;;;;;5068617;28;20232;-52
2023/01/31 04:07:25;;;;;;;74.10;57.70;;;3.50;99.90;;;;;;5068689;28;20295;-52
2023/01/31 04:09:53;;;;;;;77.40;49.93;;;3.60;99.90;;;;;;5054399;28;20213;-51
2023/01/31 04:12:21;;;;;;;304.13;120.33;;;3.60;99.90;;;;;;5065454;28;20238;-52
2023/01/31 04:14:49;;;;;;;44.93;30.17;;;3.60;99.90;;;;;;5058687;28;20620;-51
2023/01/31 04:17:17;;;;;;;138.03;56.30;;;3.60;99.90;;;;;;5071355;28;20295;-52
2023/01/31 04:19:45;;;;;;;64.83;46.80;;;3.70;99.90;;;;;;5067399;28;20202;-51
2023/01/31 04:22:13;;;;;;;88.60;64.33;;;3.70;99.90;;;;;;5071934;28;20311;-51
2023/01/31 04:24:42;;;;;;;1180.60;300.57;;;3.70;99.90;;;;;;5072537;28;20700;-52
2023/01/31 04:27:10;;;;;;;45.27;29.27;;;3.70;99.90;;;;;;5063378;28;20672;-52
2023/01/31 04:29:38;;;;;;;121.77;43.73;;;3.70;99.90;;;;;;5072414;28;20261;-52
2023/01/31 04:32:06;;;;;;;109.37;68.20;;;3.70;99.90;;;;;;5072053;28;20336;-52
2023/01/31 04:34:34;;;;;;;60.43;44.07;;;3.70;99.90;;;;;;5072509;28;20211;-50
2023/01/31 04:37:02;;;;;;;106.80;61.70;;;3.60;99.90;;;;;;5072215;28;20296;-52
2023/01/31 04:39:30;;;;;;;53.23;39.27;;;3.60;99.90;;;;;;5059739;28;20304;-51
2023/01/31 04:42:00;;;;;;;49.40;40.60;;;3.60;99.90;;;;;;5070415;28;20676;-53
2023/01/31 04:44:28;;;;;;;76.33;51.63;;;3.60;99.90;;;;;;5058243;28;20213;-52
2023/01/31 04:46:56;;;;;;;77.20;43.63;;;3.70;99.90;;;;;;5072241;28;20225;-51
2023/01/31 04:49:24;;;;;;;157.13;52.77;;;3.70;99.90;;;;;;5072187;28;20211;-51
2023/01/31 04:51:52;;;;;;;83.97;53.37;;;3.70;99.90;;;;;;5071829;28;20235;-52
2023/01/31 04:54:20;;;;;;;65.63;43.40;;;3.70;99.90;;;;;;5071902;28;20233;-51
2023/01/31 04:56:48;;;;;;;31.07;18.13;;;3.60;99.90;;;;;;5072033;28;20239;-52
2023/01/31 04:59:17;;;;;;;88.77;66.47;;;3.60;99.90;;;;;;5072041;28;20256;-51
2023/01/31 05:01:45;;;;;;;46.17;28.27;;;3.60;99.90;;;;;;5071815;28;20218;-52
2023/01/31 05:04:13;;;;;;;54.27;40.60;;;3.60;99.90;;;;;;5071534;28;20234;-52
2023/01/31 05:06:41;;;;;;;67.60;42.47;;;3.60;99.90;;;;;;5072023;28;20339;-55
2023/01/31 05:09:10;;;;;;;1907.13;450.00;;;3.60;99.90;;;;;;5071684;28;20297;-53
2023/01/31 05:11:38;;;;;;;212.23;108.13;;;3.70;99.90;;;;;;5071004;28;20238;-51
2023/01/31 05:14:06;;;;;;;57.30;32.17;;;3.70;99.90;;;;;;5051981;28;20207;-52
2023/01/31 05:16:36;;;;;;;60.30;32.50;;;3.70;99.90;;;;;;5066875;28;20242;-52
2023/01/31 05:19:04;;;;;;;87.43;45.03;;;3.70;99.90;;;;;;5071803;28;20272;-52
2023/01/31 05:21:53;;;;;;;36.60;25.77;;;3.70;99.90;;;;;;5071358;28;20211;-51
2023/01/31 05:24:20;;;;;;;67.90;46.03;;;3.70;99.90;;;;;;5071470;28;20299;-52
2023/01/31 05:26:50;;;;;;;88.23;54.93;;;3.60;99.90;;;;;;5071251;28;20220;-52
2023/01/31 05:29:19;;;;;;;69.93;52.07;;;3.60;99.90;;;;;;5071282;28;20333;-51
2023/01/31 05:31:50;;;;;;;84.97;57.87;;;3.60;99.90;;;;;;5069929;28;20210;-50
2023/01/31 05:34:18;;;;;;;61.90;42.70;;;3.50;99.90;;;;;;5062349;28;20627;-51
2023/01/31 05:36:47;;;;;;;82.40;53.87;;;3.50;99.90;;;;;;5068363;28;20208;-51
2023/01/31 05:39:15;;;;;;;49.60;36.50;;;3.40;99.90;;;;;;5050358;28;20291;-51
2023/01/31 05:41:43;;;;;;;83.80;48.23;;;3.40;99.90;;;;;;5059421;28;20647;-52
2023/01/31 05:44:11;;;;;;;101.43;67.77;;;3.40;99.90;;;;;;5071482;28;20288;-51
2023/01/31 05:46:39;;;;;;;80.23;53.47;;;3.30;99.90;;;;;;5044498;28;20222;-52
2023/01/31 05:49:09;;;;;;;46.27;31.00;;;3.40;99.90;;;;;;5071111;28;20353;-51
2023/01/31 05:51:37;;;;;;;72.80;50.47;;;3.40;99.90;;;;;;5071232;28;20295;-52
2023/01/31 05:54:05;;;;;;;73.67;51.63;;;3.40;99.90;;;;;;5063538;28;20212;-52
2023/01/31 05:56:34;;;;;;;76.17;63.03;;;3.30;99.90;;;;;;5049647;28;20750;-52
2023/01/31 05:59:02;;;;;;;210.67;110.33;;;3.20;99.90;;;;;;5054795;28;20208;-51
2023/01/31 06:01:30;;;;;;;90.10;63.30;;;3.10;99.90;;;;;;5060979;28;20332;-52
2023/01/31 06:03:58;;;;;;;97.27;85.70;;;3.10;99.90;;;;;;5061315;28;20231;-51
2023/01/31 06:06:28;;;;;;;84.20;68.60;;;3.00;99.90;;;;;;5058497;28;20234;-52
2023/01/31 06:08:56;;;;;;;78.27;45.70;;;3.00;99.90;;;;;;5070579;28;20202;-51
2023/01/31 06:11:25;;;;;;;74.03;46.40;;;2.90;99.90;;;;;;5047904;28;20208;-53
2023/01/31 06:13:56;;;;;;;100.10;79.67;;;2.90;99.90;;;;;;5056387;28;20311;-51
2023/01/31 06:16:24;;;;;;;64.90;50.50;;;2.90;99.90;;;;;;5059767;28;20203;-51
2023/01/31 06:18:54;;;;;;;211.47;72.87;;;2.90;99.90;;;;;;5064859;28;20266;-52
2023/01/31 06:21:22;;;;;;;106.10;79.63;;;2.90;99.90;;;;;;5062747;28;20235;-52
2023/01/31 06:23:51;;;;;;;147.77;82.90;;;2.80;99.90;;;;;;5062940;28;20645;-53
2023/01/31 06:26:19;;;;;;;68.00;51.97;;;2.80;99.90;;;;;;5070264;28;20312;-51
2023/01/31 06:28:47;;;;;;;101.80;53.53;;;2.90;99.90;;;;;;5067657;28;20215;-51
2023/01/31 06:31:15;;;;;;;95.33;49.43;;;2.90;99.90;;;;;;5058993;28;20213;-52
2023/01/31 06:33:43;;;;;;;52.70;32.07;;;3.00;99.90;;;;;;5068940;28;20746;-51
2023/01/31 06:36:15;;;;;;;153.80;51.43;;;3.00;99.90;;;;;;5070133;28;20208;-50
2023/01/31 06:38:50;;;;;;;168.23;63.90;;;3.00;99.90;;;;;;5070100;28;20218;-53
2023/01/31 06:41:19;;;;;;;69.50;38.83;;;3.00;99.90;;;;;;5069872;28;20211;-51
2023/01/31 06:43:47;;;;;;;222.97;100.43;;;3.00;99.90;;;;;;5063372;28;20262;-53
2023/01/31 06:46:15;;;;;;;89.60;72.97;;;3.00;99.90;;;;;;5069905;28;20403;-51
2023/01/31 06:48:43;;;;;;;55.03;29.07;;;3.00;99.90;;;;;;5070096;28;20213;-51
2023/01/31 06:51:11;;;;;;;70.37;48.07;;;3.00;99.90;;;;;;5069832;28;20205;-50
2023/01/31 06:53:39;;;;;;;58.87;33.30;;;3.00;99.90;;;;;;5069623;28;20270;-51
2023/01/31 06:56:09;;;;;;;74.73;50.90;;;3.10;99.90;;;;;;5065508;28;20241;-52
2023/01/31 06:58:37;;;;;;;95.37;63.03;;;3.10;99.90;;;;;;5068340;28;20639;-52
2023/01/31 07:01:06;;;;;;;121.27;64.57;;;3.10;99.90;;;;;;5069088;28;20215;-51
2023/01/31 07:03:34;;;;;;;390.27;96.63;;;3.10;99.90;;;;;;5061048;28;20231;-52
2023/01/31 07:06:03;;;;;;;90.57;51.03;;;3.10;99.90;;;;;;5063951;28;20236;-51
2023/01/31 07:08:31;;;;;;;135.07;71.23;;;3.20;99.90;;;;;;5068978;28;20315;-51
2023/01/31 07:11:03;;;;;;;159.47;67.83;;;3.10;99.90;;;;;;5069299;28;20225;-53
2023/01/31 07:13:32;;;;;;;123.40;48.37;;;3.20;99.90;;;;;;5067010;28;20222;-51
2023/01/31 07:16:00;;;;;;;198.63;77.53;;;3.20;99.90;;;;;;5069433;28;20238;-51
2023/01/31 07:18:28;;;;;;;151.47;58.27;;;3.20;99.90;;;;;;5069266;28;20580;-51
2023/01/31 07:20:57;;;;;;;180.47;54.40;;;3.20;99.90;;;;;;5069488;28;20214;-52
2023/01/31 07:23:25;;;;;;;63.90;47.83;;;3.20;99.90;;;;;;5068511;28;20348;-51
2023/01/31 07:25:53;;;;;;;432.67;162.33;;;3.20;99.90;;;;;;5069572;28;20206;-51
2023/01/31 07:28:21;;;;;;;351.03;108.97;;;3.20;99.90;;;;;;5069051;28;20233;-50
2023/01/31 07:30:50;;;;;;;60.73;41.63;;;3.20;99.90;;;;;;5064589;28;20261;-51
2023/01/31 07:33:19;;;;;;;596.77;122.13;;;3.20;99.90;;;;;;5068720;28;20286;-51
2023/01/31 07:35:47;;;;;;;104.70;59.57;;;3.20;99.90;;;;;;5069122;28;20288;-51
2023/01/31 07:38:15;;;;;;;73.33;61.17;;;3.30;99.90;;;;;;5068890;28;20247;-50
2023/01/31 07:40:43;;;;;;;248.83;64.83;;;3.30;99.90;;;;;;5069209;28;20285;-51
2023/01/31 07:43:11;;;;;;;235.53;90.47;;;3.30;99.90;;;;;;5046491;28;20259;-50
2023/01/31 07:45:41;;;;;;;593.50;145.80;;;3.30;99.90;;;;;;5064909;28;20580;-51
2023/01/31 07:48:11;;;;;;;176.80;78.37;;;3.30;99.90;;;;;;5062036;28;20284;-51
2023/01/31 07:50:38;;;;;;;89.60;43.40;;;3.30;99.90;;;;;;5068946;28;20298;-51
2023/01/31 07:53:06;;;;;;;380.30;86.47;;;3.30;99.90;;;;;;5068921;28;20280;-51
2023/01/31 07:55:34;;;;;;;90.97;28.57;;;3.30;99.90;;;;;;5068624;28;20311;-51
2023/01/31 07:58:02;;;;;;;377.13;101.63;;;3.40;99.90;;;;;;5068960;28;20294;-51
2023/01/31 08:03:35;;;;;;;242.03;125.63;;;3.40;99.90;;;;;;5019659;28;20257;-51
2023/01/31 08:06:08;;;;;;;49.93;32.87;;;3.40;99.90;;;;;;5047178;28;20208;-52
2023/01/31 08:08:37;;;;;;;57.93;34.50;;;3.40;99.90;;;;;;5050224;28;20232;-51
2023/01/31 08:11:05;;;;;;;83.70;39.53;;;3.40;99.90;;;;;;5061932;28;20209;-52
2023/01/31 08:13:34;;;;;;;122.07;46.67;;;3.40;99.90;;;;;;5052881;28;20319;-51
2023/01/31 08:16:02;;;;;;;43.10;25.90;;;3.40;99.90;;;;;;5061942;28;20235;-51
2023/01/31 08:18:31;;;;;;;155.83;74.47;;;3.50;99.90;;;;;;5066760;28;20206;-51
2023/01/31 08:21:00;;;;;;;51.63;35.97;;;3.40;99.90;;;;;;5064783;28;20257;-51
2023/01/31 08:23:28;;;;;;;341.27;105.40;;;3.50;99.90;;;;;;5068380;28;20248;-51
2023/01/31 08:26:01;;;;;;;213.30;81.90;;;3.50;99.90;;;;;;5050096;28;20204;-51
2023/01/31 08:28:30;;;;;;;303.90;94.50;;;3.40;99.90;;;;;;5065531;28;20288;-52
2023/01/31 08:30:59;;;;;;;128.77;59.73;;;3.40;99.90;;;;;;5059665;28;20207;-51
2023/01/31 08:33:38;;;;;;;867.37;131.67;;;3.40;99.90;;;;;;5065334;28;20260;-51
2023/01/31 08:36:09;;;;;;;126.67;46.43;;;3.40;99.90;;;;;;5051538;28;20221;-52
2023/01/31 08:38:37;;;;;;;1379.87;236.37;;;3.50;99.90;;;;;;5034775;28;20208;-50
2023/01/31 08:41:05;;;;;;;775.73;236.37;;;3.40;99.90;;;;;;5047376;28;20208;-50
2023/01/31 08:43:33;;;;;;;48.80;31.17;;;3.40;99.90;;;;;;5047439;28;20311;-51
2023/01/31 08:46:20;;;;;;;81.60;60.73;;;3.40;99.90;;;;;;5048230;28;20223;-51
2023/01/31 08:48:50;;;;;;;606.77;119.13;;;3.50;99.90;;;;;;5048549;28;20273;-51
2023/01/31 08:51:18;;;;;;;457.13;128.73;;;3.60;99.90;;;;;;5048173;28;20211;-50
2023/01/31 08:53:46;;;;;;;269.50;80.80;;;3.60;99.90;;;;;;5048041;28;20794;-51
2023/01/31 08:56:15;;;;;;;111.40;61.73;;;3.70;99.90;;;;;;5050341;28;20252;-51
2023/01/31 08:58:44;;;;;;;1292.37;241.37;;;3.70;99.90;;;;;;5046964;28;20248;-51
2023/01/31 09:01:14;;;;;;;378.30;91.47;;;3.80;99.90;;;;;;5040586;28;20259;-53
2023/01/31 09:03:42;;;;;;;668.97;130.23;;;3.80;99.90;;;;;;5047678;28;20231;-52
2023/01/31 09:06:16;;;;;;;649.27;122.43;;;3.80;99.90;;;;;;5052150;28;20209;-53
2023/01/31 09:08:44;;;;;;;1640.17;254.83;;;3.90;99.90;;;;;;5051941;28;20709;-50
2023/01/31 09:11:15;;;;;;;1802.27;319.10;;;3.90;99.90;;;;;;5051048;28;21028;-51
2023/01/31 09:13:44;;;;;;;1586.53;292.63;;;3.90;99.90;;;;;;5051404;28;20232;-52
2023/01/31 09:16:13;;;;;;;1495.07;270.87;;;3.80;99.90;;;;;;5051855;28;20758;-51
2023/01/31 09:18:42;;;;;;;610.07;150.80;;;3.70;99.90;;;;;;5038278;28;20399;-50
2023/01/31 09:21:14;;;;;;;1585.43;275.23;;;3.70;99.90;;;;;;5051737;28;20239;-50
2023/01/31 09:23:43;;;;;;;1006.40;209.93;;;3.60;99.90;;;;;;5043369;28;20262;-51
2023/01/31 09:26:12;;;;;;;1999.90;356.40;;;3.70;99.90;;;;;;5051994;28;20255;-51
2023/01/31 09:28:41;;;;;;;588.50;125.83;;;3.60;99.90;;;;;;5051543;28;20229;-51
2023/01/31 09:31:11;;;;;;;846.93;223.47;;;3.60;99.90;;;;;;5051802;28;20212;-52
2023/01/31 09:33:40;;;;;;;915.43;176.43;;;3.70;99.90;;;;;;5050803;28;20231;-52
2023/01/31 09:36:10;;;;;;;828.40;158.67;;;3.70;99.90;;;;;;5051519;28;20292;-52
2023/01/31 09:38:40;;;;;;;1548.60;295.07;;;3.70;99.90;;;;;;5051161;28;20639;-50
2023/01/31 09:41:18;;;;;;;1288.17;234.50;;;3.70;99.90;;;;;;5039782;28;20573;-53
2023/01/31 09:43:50;;;;;;;441.03;128.93;;;3.70;99.90;;;;;;5045493;28;20285;-52
2023/01/31 09:46:21;;;;;;;1315.10;203.60;;;3.70;99.90;;;;;;5051352;28;20300;-52
2023/01/31 09:48:52;;;;;;;318.93;66.07;;;3.70;99.90;;;;;;5051065;28;20732;-51
2023/01/31 09:51:21;;;;;;;480.13;108.93;;;3.70;99.90;;;;;;5051196;28;20237;-51
2023/01/31 09:53:50;;;;;;;327.60;93.17;;;3.70;99.90;;;;;;5050132;28;20225;-51
2023/01/31 09:56:30;;;;;;;330.67;132.63;;;3.70;99.90;;;;;;5050749;28;20299;-51
2023/01/31 09:59:07;;;;;;;153.03;66.70;;;3.80;99.90;;;;;;5051165;28;20218;-51
2023/01/31 10:01:42;;;;;;;470.70;96.63;;;3.80;99.90;;;;;;5050530;28;20203;-50
2023/01/31 10:04:25;;;;;;;274.40;90.47;;;3.90;99.90;;;;;;5050839;28;20300;-51
2023/01/31 10:06:58;;;;;;;52.33;37.23;;;3.90;99.90;;;;;;5049684;28;20690;-50
2023/01/31 10:09:33;;;;;;;796.47;148.13;;;4.00;99.90;;;;;;5050355;28;20234;-51
2023/01/31 10:12:09;;;;;;;59.63;31.90;;;3.90;99.90;;;;;;5050459;28;20243;-51
2023/01/31 10:14:42;;;;;;;1999.90;440.37;;;3.90;99.90;;;;;;5048327;28;20255;-51
2023/01/31 10:17:16;;;;;;;486.77;135.80;;;4.00;99.90;;;;;;5049947;28;20225;-52
2023/01/31 10:19:51;;;;;;;1999.90;359.80;;;4.10;99.90;;;;;;5050386;28;20210;-52
2023/01/31 10:22:25;;;;;;;1999.90;509.00;;;4.30;99.90;;;;;;5046373;28;20225;-52
2023/01/31 10:24:59;;;;;;;1999.90;761.30;;;4.40;99.90;;;;;;5050052;28;20236;-51
2023/01/31 10:27:40;;;;;;;1924.37;387.03;;;4.50;99.90;;;;;;5050426;28;20206;-52
2023/01/31 10:30:17;;;;;;;1999.90;452.33;;;4.50;99.90;;;;;;5043884;28;20254;-52
2023/01/31 10:32:51;;;;;;;1999.90;536.60;;;4.50;99.90;;;;;;5049839;28;20283;-51
2023/01/31 10:35:24;;;;;;;1529.10;323.47;;;4.50;99.90;;;;;;5037598;28;20217;-52
2023/01/31 10:37:57;;;;;;;122.37;39.80;;;4.50;99.90;;;;;;5049426;28;20203;-51
2023/01/31 10:40:35;;;;;;;1476.30;275.93;;;4.60;99.90;;;;;;5049869;28;20206;-52
2023/01/31 10:43:14;;;;;;;1999.90;545.20;;;4.60;99.90;;;;;;5049421;28;20236;-51
2023/01/31 10:45:42;;;;;;;298.37;100.60;;;4.60;99.90;;;;;;5049483;28;20206;-51
2023/01/31 10:48:16;;;;;;;1894.80;417.77;;;4.70;99.90;;;;;;5049686;28;20293;-52
2023/01/31 10:50:57;;;;;;;1991.03;481.17;;;4.70;99.90;;;;;;5044121;28;20655;-52
2023/01/31 10:53:49;;;;;;;767.40;179.50;;;4.80;99.90;;;;;;5049415;28;20230;-50
2023/01/31 10:56:26;;;;;;;1999.90;411.83;;;4.70;99.90;;;;;;5036465;28;20211;-52
2023/01/31 10:58:54;;;;;;;193.60;71.97;;;4.70;99.90;;;;;;5049483;28;20236;-51
2023/01/31 11:01:23;;;;;;;1770.40;386.93;;;4.80;99.90;;;;;;5048690;28;20292;-51
2023/01/31 11:03:56;;;;;;;1999.90;509.20;;;4.90;99.90;;;;;;5036661;28;20324;-51
2023/01/31 11:06:25;;;;;;;134.37;61.90;;;4.80;99.90;;;;;;5035720;28;20207;-52
2023/01/31 11:08:56;;;;;;;990.03;226.97;;;4.90;99.90;;;;;;5049479;28;20309;-52
2023/01/31 11:11:28;;;;;;;1551.93;211.87;;;4.80;99.90;;;;;;5049504;28;20214;-52
2023/01/31 11:13:59;;;;;;;1081.93;191.70;;;4.60;99.90;;;;;;5049157;28;20321;-50
2023/01/31 11:16:29;;;;;;;1632.97;374.50;;;4.50;99.90;;;;;;5048993;28;20202;-51
2023/01/31 11:18:59;;;;;;;780.17;159.93;;;4.50;99.90;;;;;;5048578;28;20217;-53
2023/01/31 11:21:30;;;;;;;1999.90;344.20;;;4.50;99.90;;;;;;5047671;28;20232;-51
2023/01/31 11:24:03;;;;;;;323.67;84.50;;;4.50;99.90;;;;;;5048425;28;20738;-51
2023/01/31 11:26:36;;;;;;;252.67;87.17;;;4.40;99.90;;;;;;5049246;28;20289;-52
2023/01/31 11:29:16;;;;;;;134.30;38.97;;;4.50;99.90;;;;;;5048911;28;20316;-51
2023/01/31 11:31:46;;;;;;;292.37;97.47;;;4.40;99.90;;;;;;5045829;28;20206;-52
2023/01/31 11:34:23;;;;;;;298.23;106.47;;;4.50;99.90;;;;;;5040942;28;20210;-51
2023/01/31 11:36:51;;;;;;;369.90;120.47;;;4.50;99.90;;;;;;5049145;28;20237;-50
2023/01/31 11:39:28;;;;;;;339.17;81.87;;;4.50;99.90;;;;;;5048368;28;20209;-52
2023/01/31 11:41:58;;;;;;;744.33;161.70;;;4.40;99.90;;;;;;5048533;28;20288;-50
2023/01/31 11:44:26;;;;;;;134.47;54.50;;;4.50;99.90;;;;;;5045397;28;20202;-52
2023/01/31 11:46:56;;;;;;;189.57;73.10;;;4.50;99.90;;;;;;5047778;28;20230;-52
2023/01/31 11:49:31;;;;;;;1168.20;238.33;;;4.60;99.90;;;;;;5048628;28;20253;-52
2023/01/31 11:52:02;;;;;;;167.47;62.27;;;4.70;99.90;;;;;;5048403;28;20236;-51
2023/01/31 11:54:33;;;;;;;249.87;93.10;;;4.70;99.90;;;;;;5048835;28;20664;-52
2023/01/31 11:57:13;;;;;;;1608.67;274.63;;;4.80;99.90;;;;;;5048392;28;20219;-52
2023/01/31 11:59:41;;;;;;;263.10;74.40;;;4.90;99.90;;;;;;5049073;28;20213;-52
2023/01/31 12:02:27;;;;;;;723.73;146.10;;;4.90;99.90;;;;;;5037976;28;20233;-51
2023/01/31 12:04:56;;;;;;;490.53;100.60;;;5.00;99.90;;;;;;5048415;28;20295;-51
2023/01/31 12:07:27;;;;;;;925.33;182.13;;;5.10;99.90;;;;;;5046042;28;20736;-51
2023/01/31 12:09:56;;;;;;;1588.13;304.00;;;5.20;99.90;;;;;;5040999;28;20325;-52
2023/01/31 12:12:30;;;;;;;601.83;127.27;;;5.30;99.90;;;;;;5044857;28;20246;-51
2023/01/31 12:15:02;;;;;;;1704.83;315.27;;;5.30;99.90;;;;;;5046171;28;20242;-52
2023/01/31 12:17:34;;;;;;;72.53;45.47;;;5.40;99.90;;;;;;5043060;28;20855;-51
2023/01/31 12:20:23;;;;;;;829.23;171.73;;;5.40;99.90;;;;;;5048946;28;20197;-52
2023/01/31 12:23:07;;;;;;;1999.90;524.83;;;5.30;99.90;;;;;;5040937;28;20233;-52
2023/01/31 12:25:48;;;;;;;244.07;64.07;;;5.40;99.90;;;;;;5048697;28;20269;-52
2023/01/31 12:28:31;;;;;;;1999.90;617.67;;;5.30;99.90;;;;;;5036257;28;20314;-52
2023/01/31 12:31:31;;;;;;;278.23;82.87;;;5.30;99.90;;;;;;5043137;28;20305;-51
2023/01/31 12:34:24;;;;;;;144.43;85.73;;;5.30;99.90;;;;;;5036984;28;20890;-52
2023/01/31 12:37:07;;;;;;;667.33;126.03;;;5.20;99.90;;;;;;5052031;28;20792;-52
2023/01/31 12:39:53;;;;;;;60.33;43.60;;;5.20;99.90;;;;;;5053279;28;20202;-52
2023/01/31 12:42:47;;;;;;;308.27;65.57;;;5.20;99.90;;;;;;5055424;28;20724;-52
2023/01/31 12:45:39;;;;;;;1401.87;213.40;;;5.20;99.90;;;;;;5047187;28;20229;-51
2023/01/31 12:48:40;;;;;;;68.47;45.17;;;5.20;99.90;;;;;;5052310;28;20269;-52
2023/01/31 12:51:19;;;;;;;640.47;126.73;;;5.20;99.90;;;;;;5052049;28;20313;-51
2023/01/31 12:53:55;;;;;;;342.40;65.83;;;5.10;99.90;;;;;;5039608;28;20229;-51
2023/01/31 12:56:39;;;;;;;116.77;53.27;;;5.10;99.90;;;;;;5051933;28;20212;-51
2023/01/31 12:59:26;;;;;;;86.90;38.73;;;5.10;99.90;;;;;;5049772;28;20288;-51
2023/01/31 13:02:02;;;;;;;1104.20;212.07;;;5.10;99.90;;;;;;5043599;28;20214;-53